createdAt,value
2018-06-08T00:00:51.414Z,0.00
2018-06-08T00:01:51.338Z,0.00
2018-06-08T00:03:44.615Z,0.00
2018-06-08T00:04:44.557Z,0.00
2018-06-08T00:06:37.865Z,0.00
2018-06-08T00:07:37.788Z,0.00
2018-06-08T00:09:31.067Z,0.00
2018-06-08T00:10:31.009Z,0.00
2018-06-08T00:12:24.360Z,0.00
2018-06-08T00:13:24.284Z,0.00
2018-06-08T00:15:17.590Z,0.00
2018-06-08T00:16:17.514Z,0.00
2018-06-08T00:18:10.791Z,0.00
2018-06-08T00:19:10.733Z,0.00
2018-06-08T00:21:04.040Z,0.00
2018-06-08T00:22:03.967Z,0.00
2018-06-08T00:23:57.255Z,0.00
2018-06-08T00:24:57.198Z,0.00
2018-06-08T00:26:50.503Z,0.00
2018-06-08T00:27:50.429Z,0.00
2018-06-08T00:29:43.734Z,0.00
2018-06-08T00:30:43.658Z,0.00
2018-06-08T00:32:36.936Z,0.00
2018-06-08T00:33:36.880Z,0.00
2018-06-08T00:35:30.174Z,0.00
2018-06-08T00:36:30.097Z,0.00
2018-06-08T00:38:23.374Z,0.00
2018-06-08T00:39:23.317Z,0.00
2018-06-08T00:41:16.625Z,0.00
2018-06-08T00:42:16.546Z,0.00
2018-06-08T00:44:09.864Z,0.00
2018-06-08T00:45:09.773Z,0.00
2018-06-08T00:47:03.058Z,0.00
2018-06-08T00:48:03.001Z,0.00
2018-06-08T00:49:56.364Z,0.00
2018-06-08T00:50:56.288Z,0.00
2018-06-08T00:52:49.572Z,0.00
2018-06-08T00:53:49.515Z,0.00
2018-06-08T00:55:42.828Z,0.00
2018-06-08T00:56:42.742Z,0.00
2018-06-08T00:58:36.016Z,0.00
2018-06-08T00:59:35.959Z,0.00
2018-06-08T01:01:29.261Z,0.00
2018-06-08T01:02:29.185Z,0.00
2018-06-08T01:04:22.478Z,0.00
2018-06-08T01:05:22.401Z,0.00
2018-06-08T01:07:15.704Z,0.00
2018-06-08T01:08:15.626Z,0.00
2018-06-08T01:10:08.930Z,0.00
2018-06-08T01:11:08.853Z,0.00
2018-06-08T01:13:02.137Z,0.00
2018-06-08T01:14:02.079Z,0.00
2018-06-08T01:15:55.483Z,0.00
2018-06-08T01:16:55.304Z,0.00
2018-06-08T01:18:48.586Z,0.00
2018-06-08T01:19:48.519Z,0.00
2018-06-08T01:21:41.822Z,0.00
2018-06-08T01:22:41.775Z,0.00
2018-06-08T01:24:35.654Z,0.00
2018-06-08T01:25:34.971Z,0.00
2018-06-08T01:27:28.246Z,0.00
2018-06-08T01:28:28.186Z,0.00
2018-06-08T01:30:21.494Z,0.00
2018-06-08T01:31:21.412Z,0.00
2018-06-08T01:33:14.696Z,0.00
2018-06-08T01:34:14.637Z,0.00
2018-06-08T01:36:07.940Z,0.00
2018-06-08T01:37:07.863Z,0.00
2018-06-08T01:39:01.147Z,0.00
2018-06-08T01:40:01.091Z,0.00
2018-06-08T01:41:54.389Z,0.00
2018-06-08T01:42:54.315Z,0.00
2018-06-08T01:44:47.621Z,0.00
2018-06-08T01:45:47.531Z,0.00
2018-06-08T01:47:40.808Z,0.00
2018-06-08T01:48:40.746Z,0.00
2018-06-08T01:50:34.051Z,0.00
2018-06-08T01:51:33.973Z,0.00
2018-06-08T01:53:27.257Z,0.00
2018-06-08T01:54:27.198Z,0.00
2018-06-08T01:56:21.107Z,0.00
2018-06-08T01:57:20.424Z,0.00
2018-06-08T01:59:13.709Z,0.00
2018-06-08T02:00:13.649Z,0.00
2018-06-08T02:02:06.951Z,0.00
2018-06-08T02:03:06.875Z,0.00
2018-06-08T02:05:00.159Z,0.00
2018-06-08T02:06:00.100Z,0.00
2018-06-08T02:07:53.502Z,0.00
2018-06-08T02:08:53.316Z,0.00
2018-06-08T02:10:46.619Z,0.00
2018-06-08T02:11:46.540Z,0.00
2018-06-08T02:13:39.823Z,0.00
2018-06-08T02:14:39.765Z,0.00
2018-06-08T02:16:33.057Z,0.00
2018-06-08T02:17:32.981Z,0.00
2018-06-08T02:19:26.340Z,0.00
2018-06-08T02:20:26.280Z,0.00
2018-06-08T02:22:19.588Z,0.00
2018-06-08T02:23:19.505Z,0.00
2018-06-08T02:25:12.788Z,0.00
2018-06-08T02:26:12.731Z,0.00
2018-06-08T02:28:06.027Z,4.00
2018-06-08T02:29:05.949Z,4.00
2018-06-08T02:30:59.353Z,0.00
2018-06-08T02:31:59.171Z,0.00
2018-06-08T02:33:52.455Z,4.00
2018-06-08T02:34:52.398Z,0.00
2018-06-08T02:36:45.700Z,4.00
2018-06-08T02:37:45.621Z,0.00
2018-06-08T02:39:38.906Z,4.00
2018-06-08T02:40:38.845Z,4.00
2018-06-08T02:42:32.148Z,8.00
2018-06-08T02:43:32.070Z,8.00
2018-06-08T02:45:25.354Z,8.00
2018-06-08T02:46:25.296Z,8.00
2018-06-08T02:48:18.598Z,12.00
2018-06-08T02:49:18.512Z,12.00
2018-06-08T02:51:11.804Z,16.00
2018-06-08T02:52:11.727Z,16.00
2018-06-08T02:54:05.012Z,20.00
2018-06-08T02:55:04.952Z,28.00
2018-06-08T02:56:58.361Z,32.00
2018-06-08T02:57:58.282Z,40.00
2018-06-08T02:59:52.171Z,48.00
2018-06-08T03:00:51.502Z,56.00
2018-06-08T03:02:44.801Z,68.00
2018-06-08T03:03:44.723Z,76.00
2018-06-08T03:05:38.007Z,92.00
2018-06-08T03:06:37.954Z,96.00
2018-06-08T03:08:31.251Z,104.00
2018-06-08T03:09:31.172Z,108.00
2018-06-08T03:11:24.480Z,132.00
2018-06-08T03:12:24.400Z,144.00
2018-06-08T03:14:17.674Z,160.00
2018-06-08T03:15:17.616Z,164.00
2018-06-08T03:17:11.022Z,180.00
2018-06-08T03:18:10.842Z,184.00
2018-06-08T03:20:04.234Z,208.00
2018-06-08T03:21:04.074Z,224.00
2018-06-08T03:22:57.371Z,252.00
2018-06-08T03:23:57.292Z,264.00
2018-06-08T03:25:50.576Z,292.00
2018-06-08T03:26:50.520Z,304.00
2018-06-08T03:28:43.923Z,332.00
2018-06-08T03:29:43.745Z,344.00
2018-06-08T03:31:37.653Z,368.00
2018-06-08T03:32:36.970Z,376.00
2018-06-08T03:34:30.345Z,388.00
2018-06-08T03:35:30.297Z,396.00
2018-06-08T03:37:23.577Z,420.00
2018-06-08T03:38:23.500Z,444.00
2018-06-08T03:40:16.785Z,484.00
2018-06-08T03:41:16.731Z,488.00
2018-06-08T03:43:10.133Z,496.00
2018-06-08T03:44:09.954Z,500.00
2018-06-08T03:46:03.339Z,528.00
2018-06-08T03:47:03.178Z,544.00
2018-06-08T03:48:56.516Z,584.00
2018-06-08T03:49:56.404Z,612.00
2018-06-08T03:51:49.708Z,688.00
2018-06-08T03:52:49.628Z,732.00
2018-06-08T03:54:43.018Z,800.00
2018-06-08T03:55:42.856Z,836.00
2018-06-08T03:57:36.263Z,880.00
2018-06-08T03:58:36.073Z,892.00
2018-06-08T04:00:29.357Z,904.00
2018-06-08T04:01:29.298Z,908.00
2018-06-08T04:03:22.706Z,912.00
2018-06-08T04:04:22.524Z,908.00
2018-06-08T04:06:15.838Z,916.00
2018-06-08T04:07:15.751Z,908.00
2018-06-08T04:09:09.137Z,896.00
2018-06-08T04:10:08.976Z,880.00
2018-06-08T04:12:02.382Z,848.00
2018-06-08T04:13:02.282Z,836.00
2018-06-08T04:14:55.564Z,792.00
2018-06-08T04:15:55.509Z,760.00
2018-06-08T04:17:48.802Z,696.00
2018-06-08T04:18:48.732Z,652.00
2018-06-08T04:20:42.111Z,596.00
2018-06-08T04:21:41.950Z,572.00
2018-06-08T04:23:35.357Z,540.00
2018-06-08T04:24:35.179Z,524.00
2018-06-08T04:26:28.461Z,488.00
2018-06-08T04:27:28.403Z,468.00
2018-06-08T04:29:21.698Z,432.00
2018-06-08T04:30:21.620Z,412.00
2018-06-08T04:32:14.924Z,384.00
2018-06-08T04:33:14.846Z,368.00
2018-06-08T04:35:08.132Z,360.00
2018-06-08T04:36:08.073Z,364.00
2018-06-08T04:38:01.370Z,384.00
2018-06-08T04:39:01.296Z,396.00
2018-06-08T04:40:54.576Z,412.00
2018-06-08T04:41:54.519Z,416.00
2018-06-08T04:43:47.822Z,416.00
2018-06-08T04:44:47.744Z,416.00
2018-06-08T04:46:41.048Z,416.00
2018-06-08T04:47:40.971Z,428.00
2018-06-08T04:49:34.361Z,460.00
2018-06-08T04:50:34.284Z,488.00
2018-06-08T04:52:27.690Z,552.00
2018-06-08T04:53:27.515Z,572.00
2018-06-08T04:55:20.897Z,620.00
2018-06-08T04:56:20.738Z,656.00
2018-06-08T04:58:14.034Z,792.00
2018-06-08T04:59:13.955Z,904.00
2018-06-08T05:01:07.243Z,1192.00
2018-06-08T05:02:07.183Z,1376.00
2018-06-08T05:04:00.487Z,1640.00
2018-06-08T05:05:00.410Z,1752.00
2018-06-08T05:06:53.717Z,2056.00
2018-06-08T05:07:53.638Z,2244.00
2018-06-08T05:09:47.095Z,2636.00
2018-06-08T05:10:46.871Z,2804.00
2018-06-08T05:12:40.168Z,3032.00
2018-06-08T05:13:40.091Z,3164.00
2018-06-08T05:15:33.376Z,3400.00
2018-06-08T05:16:33.318Z,3512.00
2018-06-08T05:18:26.624Z,3588.00
2018-06-08T05:19:26.550Z,3564.00
2018-06-08T05:21:19.934Z,3376.00
2018-06-08T05:22:19.775Z,3248.00
2018-06-08T05:24:13.080Z,2872.00
2018-06-08T05:25:13.004Z,2652.00
2018-06-08T05:27:06.488Z,2304.00
2018-06-08T05:28:06.432Z,2200.00
2018-06-08T05:29:59.714Z,2124.00
2018-06-08T05:30:59.642Z,2104.00
2018-06-08T05:32:52.943Z,2092.00
2018-06-08T05:33:52.890Z,2120.00
2018-06-08T05:35:46.253Z,2220.00
2018-06-08T05:36:46.095Z,2292.00
2018-06-08T05:38:39.501Z,2432.00
2018-06-08T05:39:39.324Z,2520.00
2018-06-08T05:41:32.612Z,2708.00
2018-06-08T05:42:32.640Z,2804.00
2018-06-08T05:44:25.860Z,2948.00
2018-06-08T05:45:25.784Z,3012.00
2018-06-08T05:47:19.106Z,3096.00
2018-06-08T05:48:19.089Z,3128.00
2018-06-08T05:50:12.402Z,3156.00
2018-06-08T05:51:12.286Z,3200.00
2018-06-08T05:53:06.695Z,3328.00
2018-06-08T05:54:06.520Z,3408.00
2018-06-08T05:55:59.906Z,3488.00
2018-06-08T05:56:59.751Z,3500.00
2018-06-08T05:58:53.137Z,3532.00
2018-06-08T05:59:52.983Z,3568.00
2018-06-08T06:01:46.342Z,3632.00
2018-06-08T06:02:46.287Z,3688.00
2018-06-08T06:04:39.592Z,3812.00
2018-06-08T06:05:39.517Z,3876.00
2018-06-08T06:07:32.926Z,4008.00
2018-06-08T06:08:32.739Z,4060.00
2018-06-08T06:10:26.128Z,4128.00
2018-06-08T06:11:25.971Z,4176.00
2018-06-08T06:13:19.381Z,4280.00
2018-06-08T06:14:19.202Z,4304.00
2018-06-08T06:16:12.493Z,4256.00
2018-06-08T06:17:12.439Z,4220.00
2018-06-08T06:19:05.849Z,4148.00
2018-06-08T06:20:05.670Z,4112.00
2018-06-08T06:21:58.949Z,3988.00
2018-06-08T06:22:58.894Z,3916.00
2018-06-08T06:24:52.306Z,3768.00
2018-06-08T06:25:52.127Z,3716.00
2018-06-08T06:27:45.446Z,3716.00
2018-06-08T06:28:45.371Z,3756.00
2018-06-08T06:30:38.760Z,3896.00
2018-06-08T06:31:38.602Z,3988.00
2018-06-08T06:33:31.913Z,4156.00
2018-06-08T06:34:31.834Z,4240.00
2018-06-08T06:36:25.225Z,4368.00
2018-06-08T06:37:25.067Z,4404.00
2018-06-08T06:39:18.376Z,4416.00
2018-06-08T06:40:18.301Z,4400.00
2018-06-08T06:42:11.695Z,4356.00
2018-06-08T06:43:11.536Z,4344.00
2018-06-08T06:45:04.845Z,4372.00
2018-06-08T06:46:04.770Z,4396.00
2018-06-08T06:47:58.068Z,4416.00
2018-06-08T06:48:57.994Z,4432.00
2018-06-08T06:50:51.385Z,4556.00
2018-06-08T06:51:51.219Z,4704.00
2018-06-08T06:53:44.527Z,5020.00
2018-06-08T06:54:44.454Z,5204.00
2018-06-08T06:56:37.740Z,5532.00
2018-06-08T06:57:37.681Z,5680.00
2018-06-08T06:59:31.086Z,5828.00
2018-06-08T07:00:30.905Z,5840.00
2018-06-08T07:02:24.184Z,5724.00
2018-06-08T07:03:24.130Z,5596.00
2018-06-08T07:05:17.539Z,5332.00
2018-06-08T07:06:17.354Z,5196.00
2018-06-08T07:08:10.661Z,4956.00
2018-06-08T07:09:10.582Z,4848.00
2018-06-08T07:11:03.871Z,4712.00
2018-06-08T07:12:03.813Z,4680.00
2018-06-08T07:13:57.224Z,4688.00
2018-06-08T07:14:57.039Z,4716.00
2018-06-08T07:16:50.348Z,4792.00
2018-06-08T07:17:50.293Z,4836.00
2018-06-08T07:19:43.591Z,4896.00
2018-06-08T07:20:43.522Z,4916.00
2018-06-08T07:22:36.799Z,4940.00
2018-06-08T07:23:36.744Z,4944.00
2018-06-08T07:25:30.049Z,4920.00
2018-06-08T07:26:29.971Z,4904.00
2018-06-08T07:28:23.275Z,4884.00
2018-06-08T07:29:23.200Z,4868.00
2018-06-08T07:31:16.589Z,4820.00
2018-06-08T07:32:16.426Z,4836.00
2018-06-08T07:34:10.725Z,4748.00
2018-06-08T07:35:10.652Z,4744.00
2018-06-08T07:37:03.940Z,4752.00
2018-06-08T07:38:03.884Z,4776.00
2018-06-08T07:39:57.306Z,4864.00
2018-06-08T07:40:57.102Z,4940.00
2018-06-08T07:42:50.498Z,5152.00
2018-06-08T07:43:50.329Z,5280.00
2018-06-08T07:45:43.630Z,5340.00
2018-06-08T07:46:43.559Z,5428.00
2018-06-08T07:48:36.857Z,5496.00
2018-06-08T07:49:36.781Z,5476.00
2018-06-08T07:51:30.062Z,5380.00
2018-06-08T07:52:30.008Z,5348.00
2018-06-08T07:54:23.306Z,5144.00
2018-06-08T07:55:23.237Z,5016.00
2018-06-08T07:57:16.516Z,4824.00
2018-06-08T07:58:16.460Z,4736.00
2018-06-08T08:00:10.757Z,4568.00
2018-06-08T08:01:10.691Z,4524.00
2018-06-08T08:03:04.085Z,4448.00
2018-06-08T08:04:03.909Z,4424.00
2018-06-08T08:05:57.318Z,4416.00
2018-06-08T08:06:57.132Z,4416.00
2018-06-08T08:08:50.433Z,4432.00
2018-06-08T08:09:50.358Z,4444.00
2018-06-08T08:11:43.747Z,4440.00
2018-06-08T08:12:43.580Z,4432.00
2018-06-08T08:14:36.881Z,4420.00
2018-06-08T08:15:36.805Z,4420.00
2018-06-08T08:17:30.088Z,4424.00
2018-06-08T08:18:30.030Z,4432.00
2018-06-08T08:20:23.335Z,4432.00
2018-06-08T08:21:23.256Z,4396.00
2018-06-08T08:23:16.651Z,4204.00
2018-06-08T08:24:16.481Z,4044.00
2018-06-08T08:26:09.835Z,3736.00
2018-06-08T08:27:09.760Z,3620.00
2018-06-08T08:29:03.057Z,3480.00
2018-06-08T08:30:02.983Z,3424.00
2018-06-08T08:31:56.374Z,3300.00
2018-06-08T08:32:56.290Z,3244.00
2018-06-08T08:34:49.703Z,3120.00
2018-06-08T08:35:49.515Z,3052.00
2018-06-08T08:37:42.905Z,3028.00
2018-06-08T08:38:42.740Z,3016.00
2018-06-08T08:40:36.150Z,3008.00
2018-06-08T08:41:35.965Z,3004.00
2018-06-08T08:43:29.245Z,2992.00
2018-06-08T08:44:29.192Z,2992.00
2018-06-08T08:46:22.600Z,3008.00
2018-06-08T08:47:22.425Z,3036.00
2018-06-08T08:49:15.734Z,3112.00
2018-06-08T08:50:15.657Z,3164.00
2018-06-08T08:52:09.052Z,3300.00
2018-06-08T08:53:08.892Z,3396.00
2018-06-08T08:55:02.251Z,3588.00
2018-06-08T08:56:02.177Z,3688.00
2018-06-08T08:57:55.457Z,3860.00
2018-06-08T08:58:55.401Z,3928.00
2018-06-08T09:00:48.814Z,4004.00
2018-06-08T09:01:48.635Z,4024.00
2018-06-08T09:03:41.928Z,4088.00
2018-06-08T09:04:41.871Z,4132.00
2018-06-08T09:06:35.178Z,4224.00
2018-06-08T09:07:35.101Z,4288.00
2018-06-08T09:09:28.414Z,4436.00
2018-06-08T09:10:28.335Z,4516.00
2018-06-08T09:12:21.725Z,4704.00
2018-06-08T09:13:21.569Z,4824.00
2018-06-08T09:15:14.878Z,4964.00
2018-06-08T09:16:14.801Z,5012.00
2018-06-08T09:18:08.691Z,5080.00
2018-06-08T09:19:08.027Z,5076.00
2018-06-08T09:21:01.336Z,5016.00
2018-06-08T09:22:01.261Z,5012.00
2018-06-08T09:23:54.551Z,5108.00
2018-06-08T09:24:54.497Z,5184.00
2018-06-08T09:26:47.805Z,5424.00
2018-06-08T09:27:47.730Z,5484.00
2018-06-08T09:29:41.024Z,5472.00
2018-06-08T09:30:40.969Z,5464.00
2018-06-08T09:32:34.365Z,5348.00
2018-06-08T09:33:34.296Z,5296.00
2018-06-08T09:35:27.599Z,5032.00
2018-06-08T09:36:27.526Z,4888.00
2018-06-08T09:38:20.811Z,4692.00
2018-06-08T09:39:20.755Z,4608.00
2018-06-08T09:41:14.065Z,4532.00
2018-06-08T09:42:13.991Z,4548.00
2018-06-08T09:44:07.468Z,4596.00
2018-06-08T09:45:07.412Z,4604.00
2018-06-08T09:47:00.720Z,4584.00
2018-06-08T09:48:00.647Z,4560.00
2018-06-08T09:49:54.042Z,4592.00
2018-06-08T09:50:53.884Z,4600.00
2018-06-08T09:52:47.289Z,4588.00
2018-06-08T09:53:47.117Z,4568.00
2018-06-08T09:55:40.428Z,4580.00
2018-06-08T09:56:40.347Z,4568.00
2018-06-08T09:58:33.636Z,4428.00
2018-06-08T09:59:33.581Z,4348.00
2018-06-08T10:01:27.892Z,4276.00
2018-06-08T10:02:27.820Z,4276.00
2018-06-08T10:04:21.105Z,4208.00
2018-06-08T10:05:21.091Z,4160.00
2018-06-08T10:07:14.455Z,4084.00
2018-06-08T10:08:14.286Z,4012.00
2018-06-08T10:10:07.581Z,3816.00
2018-06-08T10:11:07.516Z,3684.00
2018-06-08T10:13:00.824Z,3408.00
2018-06-08T10:14:00.749Z,3276.00
2018-06-08T10:15:54.158Z,3048.00
2018-06-08T10:16:53.982Z,2940.00
2018-06-08T10:18:47.476Z,2776.00
2018-06-08T10:19:47.411Z,2672.00
2018-06-08T10:21:40.822Z,2540.00
2018-06-08T10:22:40.644Z,2496.00
2018-06-08T10:24:33.932Z,2432.00
2018-06-08T10:25:33.877Z,2396.00
2018-06-08T10:27:27.175Z,2356.00
2018-06-08T10:28:27.102Z,2352.00
2018-06-08T10:30:20.389Z,2396.00
2018-06-08T10:31:20.332Z,2420.00
2018-06-08T10:33:13.640Z,2448.00
2018-06-08T10:34:13.565Z,2444.00
2018-06-08T10:36:07.905Z,2380.00
2018-06-08T10:37:07.816Z,2336.00
2018-06-08T10:39:01.205Z,2256.00
2018-06-08T10:40:01.112Z,2216.00
2018-06-08T10:41:54.452Z,2120.00
2018-06-08T10:42:54.277Z,2068.00
2018-06-08T10:44:47.564Z,1940.00
2018-06-08T10:45:47.508Z,1856.00
2018-06-08T10:47:40.807Z,1672.00
2018-06-08T10:48:40.730Z,1572.00
2018-06-08T10:50:34.017Z,1424.00
2018-06-08T10:51:33.961Z,1364.00
2018-06-08T10:53:27.866Z,1260.00
2018-06-08T10:54:27.420Z,1216.00
2018-06-08T10:56:20.707Z,1140.00
2018-06-08T10:57:20.649Z,1112.00
2018-06-08T10:59:13.956Z,1060.00
2018-06-08T11:00:13.878Z,1040.00
2018-06-08T11:02:07.184Z,1004.00
2018-06-08T11:03:07.106Z,984.00
2018-06-08T11:05:00.496Z,964.00
2018-06-08T11:06:00.332Z,956.00
2018-06-08T11:07:53.640Z,932.00
2018-06-08T11:08:53.559Z,924.00
2018-06-08T11:10:46.946Z,912.00
2018-06-08T11:11:46.790Z,904.00
2018-06-08T11:13:40.192Z,888.00
2018-06-08T11:14:40.012Z,880.00
2018-06-08T11:16:33.465Z,864.00
2018-06-08T11:17:33.402Z,860.00
2018-06-08T11:19:26.706Z,856.00
2018-06-08T11:20:26.628Z,844.00
2018-06-08T11:22:19.911Z,852.00
2018-06-08T11:23:19.858Z,840.00
2018-06-08T11:25:13.255Z,816.00
2018-06-08T11:26:13.086Z,780.00
2018-06-08T11:28:06.380Z,608.00
2018-06-08T11:29:06.303Z,508.00
2018-06-08T11:30:59.584Z,376.00
2018-06-08T11:31:59.529Z,340.00
2018-06-08T11:33:52.828Z,308.00
2018-06-08T11:34:52.748Z,292.00
2018-06-08T11:36:46.030Z,292.00
2018-06-08T11:37:45.971Z,304.00
2018-06-08T11:39:39.473Z,352.00
2018-06-08T11:40:39.400Z,392.00
2018-06-08T11:42:32.684Z,444.00
2018-06-08T11:43:32.627Z,460.00
2018-06-08T11:45:26.026Z,436.00
2018-06-08T11:46:25.845Z,428.00
2018-06-08T11:48:19.230Z,420.00
2018-06-08T11:49:19.060Z,424.00
2018-06-08T11:51:12.465Z,420.00
2018-06-08T11:52:12.282Z,424.00
2018-06-08T11:54:05.686Z,444.00
2018-06-08T11:55:05.507Z,460.00
2018-06-08T11:56:58.786Z,488.00
2018-06-08T11:57:58.728Z,496.00
2018-06-08T11:59:52.129Z,488.00
2018-06-08T12:00:51.947Z,480.00
2018-06-08T12:02:45.229Z,488.00
2018-06-08T12:03:45.170Z,512.00
2018-06-08T12:05:38.572Z,648.00
2018-06-08T12:06:38.391Z,696.00
2018-06-08T12:08:31.778Z,824.00
2018-06-08T12:09:31.611Z,932.00
2018-06-08T12:11:24.913Z,1240.00
2018-06-08T12:12:24.832Z,1404.00
2018-06-08T12:14:18.217Z,1628.00
2018-06-08T12:15:18.053Z,1636.00
2018-06-08T12:17:11.515Z,1780.00
2018-06-08T12:18:11.282Z,1980.00
2018-06-08T12:20:04.686Z,2296.00
2018-06-08T12:21:04.507Z,2452.00
2018-06-08T12:22:57.889Z,2656.00
2018-06-08T12:23:57.725Z,2760.00
2018-06-08T12:25:51.128Z,2816.00
2018-06-08T12:26:50.944Z,2816.00
2018-06-08T12:28:44.226Z,2820.00
2018-06-08T12:29:44.179Z,2792.00
2018-06-08T12:31:37.467Z,2708.00
2018-06-08T12:32:37.389Z,2668.00
2018-06-08T12:34:30.670Z,2624.00
2018-06-08T12:35:30.612Z,2616.00
2018-06-08T12:37:24.014Z,2640.00
2018-06-08T12:38:23.824Z,2684.00
2018-06-08T12:40:17.144Z,2756.00
2018-06-08T12:41:17.046Z,2768.00
2018-06-08T12:43:10.330Z,2788.00
2018-06-08T12:44:10.269Z,2784.00
2018-06-08T12:46:03.572Z,2828.00
2018-06-08T12:47:03.493Z,2860.00
2018-06-08T12:48:56.796Z,2960.00
2018-06-08T12:49:56.716Z,3016.00
2018-06-08T12:51:50.018Z,3140.00
2018-06-08T12:52:49.943Z,3212.00
2018-06-08T12:54:43.222Z,3292.00
2018-06-08T12:55:43.215Z,3324.00
2018-06-08T12:57:36.468Z,3344.00
2018-06-08T12:58:36.389Z,3332.00
2018-06-08T13:00:30.275Z,3240.00
2018-06-08T13:01:29.616Z,3136.00
2018-06-08T13:03:22.918Z,2964.00
2018-06-08T13:04:22.837Z,2884.00
2018-06-08T13:06:16.140Z,2772.00
2018-06-08T13:07:16.061Z,2744.00
2018-06-08T13:09:09.451Z,2696.00
2018-06-08T13:10:09.287Z,2704.00
2018-06-08T13:12:02.591Z,2760.00
2018-06-08T13:13:02.511Z,2848.00
2018-06-08T13:14:55.794Z,3060.00
2018-06-08T13:15:55.737Z,3212.00
2018-06-08T13:17:49.040Z,3580.00
2018-06-08T13:18:48.953Z,3780.00
2018-06-08T13:20:42.237Z,4152.00
2018-06-08T13:21:42.179Z,4068.00
2018-06-08T13:23:35.482Z,3500.00
2018-06-08T13:24:35.407Z,5164.00
2018-06-08T13:26:28.688Z,6148.00
2018-06-08T13:27:28.632Z,6252.00
2018-06-08T13:29:21.935Z,5900.00
2018-06-08T13:30:21.858Z,5516.00
2018-06-08T13:32:15.162Z,5388.00
2018-06-08T13:33:15.087Z,5608.00
2018-06-08T13:35:08.371Z,6224.00
2018-06-08T13:36:08.314Z,6596.00
2018-06-08T13:38:01.722Z,7108.00
2018-06-08T13:39:01.537Z,7276.00
2018-06-08T13:40:54.930Z,7112.00
2018-06-08T13:41:54.767Z,6948.00
2018-06-08T13:43:48.084Z,7020.00
2018-06-08T13:44:48.008Z,6928.00
2018-06-08T13:46:41.343Z,6392.00
2018-06-08T13:47:41.286Z,6260.00
2018-06-08T13:49:34.595Z,6404.00
2018-06-08T13:50:34.518Z,6544.00
2018-06-08T13:52:27.861Z,6572.00
2018-06-08T13:53:27.753Z,6764.00
2018-06-08T13:55:21.160Z,6988.00
2018-06-08T13:56:20.981Z,7288.00
2018-06-08T13:58:14.296Z,7564.00
2018-06-08T13:59:14.216Z,7648.00
2018-06-08T14:01:07.605Z,7660.00
2018-06-08T14:02:07.454Z,7672.00
2018-06-08T14:04:01.758Z,7868.00
2018-06-08T14:05:01.685Z,7728.00
2018-06-08T14:06:54.975Z,7504.00
2018-06-08T14:07:54.917Z,7052.00
2018-06-08T14:09:48.327Z,6356.00
2018-06-08T14:10:48.153Z,6240.00
2018-06-08T14:12:41.544Z,6484.00
2018-06-08T14:13:41.388Z,6756.00
2018-06-08T14:15:34.695Z,6944.00
2018-06-08T14:16:34.621Z,6920.00
2018-06-08T14:18:27.930Z,7060.00
2018-06-08T14:19:27.855Z,7168.00
2018-06-08T14:21:21.145Z,7304.00
2018-06-08T14:22:21.089Z,7084.00
2018-06-08T14:24:14.400Z,6584.00
2018-06-08T14:25:14.325Z,6828.00
2018-06-08T14:27:07.717Z,6224.00
2018-06-08T14:28:07.566Z,5796.00
2018-06-08T14:30:00.874Z,5500.00
2018-06-08T14:31:00.799Z,5324.00
2018-06-08T14:32:54.092Z,4980.00
2018-06-08T14:33:54.034Z,4796.00
2018-06-08T14:35:47.363Z,4636.00
2018-06-08T14:36:47.288Z,4544.00
2018-06-08T14:38:40.582Z,4564.00
2018-06-08T14:39:40.526Z,4488.00
2018-06-08T14:41:33.839Z,4328.00
2018-06-08T14:42:33.762Z,4400.00
2018-06-08T14:44:27.070Z,4388.00
2018-06-08T14:45:26.997Z,4724.00
2018-06-08T14:47:21.385Z,4824.00
2018-06-08T14:48:21.289Z,4884.00
2018-06-08T14:50:14.599Z,5272.00
2018-06-08T14:51:14.524Z,5672.00
2018-06-08T14:53:08.812Z,6248.00
2018-06-08T14:54:08.758Z,6556.00
2018-06-08T14:56:02.067Z,6200.00
2018-06-08T14:57:01.992Z,6988.00
2018-06-08T14:58:55.345Z,6240.00
2018-06-08T14:59:55.289Z,6564.00
2018-06-08T15:01:48.599Z,6380.00
2018-06-08T15:02:48.523Z,5656.00
2018-06-08T15:04:41.958Z,5052.00
2018-06-08T15:05:41.757Z,4960.00
2018-06-08T15:07:35.150Z,4956.00
2018-06-08T15:08:34.998Z,4552.00
2018-06-08T15:10:28.308Z,4040.00
2018-06-08T15:11:28.241Z,4036.00
2018-06-08T15:13:21.526Z,4068.00
2018-06-08T15:14:21.468Z,4080.00
2018-06-08T15:16:15.781Z,4112.00
2018-06-08T15:17:15.707Z,4092.00
2018-06-08T15:19:09.004Z,4136.00
2018-06-08T15:20:08.947Z,4156.00
2018-06-08T15:22:02.352Z,4320.00
2018-06-08T15:23:02.217Z,4468.00
2018-06-08T15:24:56.506Z,4664.00
2018-06-08T15:25:56.413Z,4760.00
2018-06-08T15:27:49.706Z,5128.00
2018-06-08T15:28:49.656Z,5120.00
2018-06-08T15:30:43.061Z,5284.00
2018-06-08T15:31:42.887Z,5380.00
2018-06-08T15:33:36.178Z,5240.00
2018-06-08T15:34:36.133Z,5212.00
2018-06-08T15:36:30.444Z,5376.00
2018-06-08T15:37:30.363Z,5544.00
2018-06-08T15:39:23.652Z,5332.00
2018-06-08T15:40:23.633Z,5244.00
2018-06-08T15:42:16.915Z,5280.00
2018-06-08T15:43:16.836Z,5204.00
2018-06-08T15:45:11.127Z,5192.00
2018-06-08T15:46:11.072Z,5184.00
2018-06-08T15:48:04.374Z,5344.00
2018-06-08T15:49:04.305Z,5632.00
2018-06-08T15:50:57.716Z,5536.00
2018-06-08T15:51:57.537Z,5376.00
2018-06-08T15:53:50.829Z,5164.00
2018-06-08T15:54:50.774Z,5032.00
2018-06-08T15:56:44.185Z,4788.00
2018-06-08T15:57:44.004Z,4868.00
2018-06-08T15:59:38.296Z,4748.00
2018-06-08T16:00:38.242Z,4544.00
2018-06-08T16:02:32.559Z,3928.00
2018-06-08T16:03:32.485Z,3860.00
2018-06-08T16:05:25.776Z,4052.00
2018-06-08T16:06:25.722Z,3948.00
2018-06-08T16:08:19.134Z,4120.00
2018-06-08T16:09:18.949Z,4120.00
2018-06-08T16:11:13.343Z,4148.00
2018-06-08T16:12:13.287Z,3816.00
2018-06-08T16:14:06.604Z,4108.00
2018-06-08T16:15:06.528Z,3696.00
2018-06-08T16:17:00.859Z,4116.00
2018-06-08T16:18:00.784Z,3856.00
2018-06-08T16:19:54.067Z,3940.00
2018-06-08T16:20:54.014Z,4104.00
2018-06-08T16:22:47.380Z,4256.00
2018-06-08T16:23:47.289Z,4308.00
2018-06-08T16:25:40.581Z,4228.00
2018-06-08T16:26:40.527Z,3632.00
2018-06-08T16:28:33.838Z,3320.00
2018-06-08T16:29:33.764Z,3576.00
2018-06-08T16:31:27.054Z,3356.00
2018-06-08T16:32:27.001Z,3460.00
2018-06-08T16:34:20.414Z,3680.00
2018-06-08T16:35:20.229Z,3728.00
2018-06-08T16:37:14.120Z,3740.00
2018-06-08T16:38:13.467Z,3732.00
2018-06-08T16:40:06.782Z,3664.00
2018-06-08T16:41:06.703Z,3612.00
2018-06-08T16:43:00.019Z,3564.00
2018-06-08T16:43:59.938Z,3508.00
2018-06-08T16:45:54.332Z,3380.00
2018-06-08T16:46:54.168Z,3368.00
2018-06-08T16:48:47.479Z,3308.00
2018-06-08T16:49:47.405Z,3268.00
2018-06-08T16:51:40.697Z,3300.00
2018-06-08T16:52:40.641Z,3268.00
2018-06-08T16:54:34.956Z,3276.00
2018-06-08T16:55:34.878Z,3360.00
2018-06-08T16:57:28.157Z,3384.00
2018-06-08T16:58:28.108Z,3524.00
2018-06-08T17:00:21.421Z,3452.00
2018-06-08T17:01:21.365Z,3428.00
2018-06-08T17:03:14.658Z,3356.00
2018-06-08T17:04:14.579Z,3252.00
2018-06-08T17:06:07.885Z,3228.00
2018-06-08T17:07:07.809Z,3172.00
2018-06-08T17:09:01.122Z,3144.00
2018-06-08T17:10:01.047Z,3152.00
2018-06-08T17:11:54.335Z,3200.00
2018-06-08T17:12:54.280Z,3252.00
2018-06-08T17:14:48.693Z,3228.00
2018-06-08T17:15:48.521Z,3244.00
2018-06-08T17:17:41.804Z,3636.00
2018-06-08T17:18:41.752Z,3804.00
2018-06-08T17:20:35.060Z,3864.00
2018-06-08T17:21:34.984Z,3756.00
2018-06-08T17:23:29.348Z,3448.00
2018-06-08T17:24:29.293Z,3392.00
2018-06-08T17:26:23.603Z,3244.00
2018-06-08T17:27:23.532Z,3176.00
2018-06-08T17:29:17.849Z,3056.00
2018-06-08T17:30:17.767Z,2988.00
2018-06-08T17:32:12.162Z,2888.00
2018-06-08T17:33:12.008Z,2848.00
2018-06-08T17:35:05.365Z,2812.00
2018-06-08T17:36:05.290Z,2840.00
2018-06-08T17:37:58.569Z,2952.00
2018-06-08T17:38:58.518Z,3008.00
2018-06-08T17:40:51.928Z,3028.00
2018-06-08T17:41:51.753Z,3020.00
2018-06-08T17:43:45.045Z,3016.00
2018-06-08T17:44:44.990Z,2948.00
2018-06-08T17:46:38.292Z,2900.00
2018-06-08T17:47:38.217Z,2840.00
2018-06-08T17:49:31.531Z,2692.00